Time;durP1;ratioP1;P1;durP2;ratioP2;P2;SDS_P1;SDS_P2;PMS_P1;PMS_P2;Temp;Humidity;BMP_temperature;BMP_pressure;BME280_temperature;BME280_humidity;BME280_pressure;Samples;Min_cycle;Max_cycle;Signal;HPM_P1;HPM_P2
2023/11/05 00:00:10;;;;;;;6.05;3.83;;;;;;;6.77;79.69;90152.38;2050327;70;20633;-77
2023/11/05 00:02:38;;;;;;;9.30;4.13;;;;;;;6.79;78.94;90146.16;2050818;70;20260;-77
2023/11/05 00:05:04;;;;;;;8.75;3.90;;;;;;;6.71;78.61;90129.81;2050747;70;20570;-77
2023/11/05 00:07:30;;;;;;;7.20;4.13;;;;;;;6.74;79.24;90133.41;2050523;69;20288;-75
2023/11/05 00:09:56;;;;;;;6.10;3.80;;;;;;;6.79;79.03;90134.97;2050692;70;20204;-75
2023/11/05 00:12:22;;;;;;;7.15;4.20;;;;;;;6.82;79.10;90142.75;2050886;70;20130;-75
2023/11/05 00:14:53;;;;;;;6.95;3.97;;;;;;;6.81;79.43;90137.81;2051020;70;20150;-75
2023/11/05 00:17:28;;;;;;;5.80;3.38;;;;;;;6.85;79.21;90132.38;2050684;69;20986;-74
2023/11/05 00:19:58;;;;;;;5.35;3.30;;;;;;;6.91;79.39;90126.97;2050674;70;20139;-75
2023/11/05 00:22:28;;;;;;;4.75;3.10;;;;;;;6.94;79.63;90120.06;2051450;70;20205;-75
2023/11/05 00:24:55;;;;;;;6.18;3.80;;;;;;;6.83;78.72;90127.44;2050588;70;20150;-75
2023/11/05 00:27:21;;;;;;;5.50;3.80;;;;;;;6.95;79.47;90138.28;2050366;70;20641;-76
2023/11/05 00:29:48;;;;;;;7.05;3.60;;;;;;;6.96;79.05;90125.72;2053136;69;20185;-77
2023/11/05 00:32:15;;;;;;;5.90;3.60;;;;;;;6.87;79.34;90116.38;2050753;70;20562;-76
2023/11/05 00:34:42;;;;;;;5.03;3.10;;;;;;;6.95;78.97;90110.31;2050187;70;20161;-78
2023/11/05 00:37:09;;;;;;;6.15;3.40;;;;;;;6.97;78.56;90134.84;2050846;70;20154;-76
2023/11/05 00:39:36;;;;;;;5.43;3.50;;;;;;;6.94;78.76;90124.97;2050581;70;20542;-77
2023/11/05 00:42:03;;;;;;;6.32;3.58;;;;;;;6.95;78.96;90126.38;2050287;70;20241;-75
2023/11/05 00:44:28;;;;;;;5.57;3.20;;;;;;;6.91;79.11;90135.34;2050237;70;20562;-74
2023/11/05 00:46:54;;;;;;;5.22;2.60;;;;;;;6.89;79.56;90146.47;2050114;70;20542;-75
2023/11/05 00:49:19;;;;;;;3.55;1.70;;;;;;;6.95;79.61;90149.47;2050000;70;20613;-75
2023/11/05 00:51:46;;;;;;;1.92;1.48;;;;;;;6.96;79.59;90150.91;2050681;70;20178;-75
2023/11/05 00:54:12;;;;;;;4.80;1.30;;;;;;;6.75;79.36;90123.66;2050649;70;20145;-74
2023/11/05 00:56:37;;;;;;;3.05;1.00;;;;;;;6.97;79.43;90182.41;2050639;69;20147;-75
2023/11/05 00:59:03;;;;;;;1.38;0.68;;;;;;;6.86;79.49;90193.22;2051438;69;20150;-74
2023/11/05 01:01:29;;;;;;;2.53;0.88;;;;;;;6.88;78.65;90182.13;2050984;69;20504;-75
2023/11/05 01:03:54;;;;;;;2.53;1.08;;;;;;;6.94;78.11;90181.59;2051182;69;20191;-74
2023/11/05 01:06:20;;;;;;;1.20;1.00;;;;;;;6.92;78.75;90187.16;2051267;69;20154;-76
2023/11/05 01:08:46;;;;;;;1.75;0.90;;;;;;;6.85;78.39;90200.19;2051195;69;20146;-75
2023/11/05 01:11:11;;;;;;;1.25;0.80;;;;;;;6.91;78.58;90191.28;2047824;70;20138;-75
2023/11/05 01:13:37;;;;;;;1.67;0.88;;;;;;;6.89;78.68;90185.63;2051176;70;20483;-76
2023/11/05 01:16:05;;;;;;;1.08;0.82;;;;;;;6.83;78.13;90188.22;2051483;69;20181;-75
2023/11/05 01:18:31;;;;;;;1.73;0.90;;;;;;;6.78;78.60;90195.78;2051182;69;20854;-74
2023/11/05 01:20:56;;;;;;;1.20;0.90;;;;;;;6.80;78.99;90212.59;2051299;70;20157;-75
2023/11/05 01:23:22;;;;;;;1.00;0.90;;;;;;;6.78;78.66;90228.59;2051235;70;20154;-74
2023/11/05 01:25:48;;;;;;;0.82;0.80;;;;;;;6.81;78.42;90233.59;2051275;69;20261;-74
2023/11/05 01:28:14;;;;;;;4.88;1.10;;;;;;;6.82;78.64;90239.91;2051610;69;20155;-74
2023/11/05 01:30:40;;;;;;;2.00;1.10;;;;;;;6.80;78.91;90239.84;2051356;70;20212;-75
2023/11/05 01:33:06;;;;;;;2.38;1.20;;;;;;;6.72;79.00;90233.97;2051054;69;20138;-75
2023/11/05 01:35:31;;;;;;;3.13;1.20;;;;;;;6.77;78.59;90225.06;2050596;70;20542;-76
2023/11/05 01:37:57;;;;;;;1.85;1.20;;;;;;;6.76;78.82;90206.88;2050824;69;20154;-78
2023/11/05 01:40:23;;;;;;;4.20;1.40;;;;;;;6.73;78.61;90194.19;2050128;70;20642;-75
2023/11/05 01:42:52;;;;;;;1.77;1.08;;;;;;;6.66;78.55;90177.84;2051072;69;20162;-74
2023/11/05 01:45:18;;;;;;;1.88;1.10;;;;;;;6.65;78.21;90193.19;2051173;69;20264;-74
2023/11/05 01:47:44;;;;;;;1.50;1.20;;;;;;;6.70;78.01;90172.41;2051122;69;20138;-75
2023/11/05 01:50:11;;;;;;;1.58;1.05;;;;;;;6.67;78.54;90166.03;2050619;70;20173;-75
2023/11/05 01:52:36;;;;;;;1.95;1.10;;;;;;;6.66;78.27;90183.44;2051150;69;20146;-75
2023/11/05 01:55:03;;;;;;;1.45;1.00;;;;;;;6.62;78.10;90162.38;2051002;69;20162;-75
2023/11/05 01:57:30;;;;;;;1.27;1.10;;;;;;;6.42;77.43;90114.19;2051101;69;20292;-76
2023/11/05 01:59:59;;;;;;;1.80;1.30;;;;;;;5.28;79.44;90059.84;2048302;70;20468;-74
2023/11/05 02:02:28;;;;;;;2.50;1.30;;;;;;;4.96;82.35;90040.53;2050712;70;20529;-75
2023/11/05 02:04:55;;;;;;;1.88;1.13;;;;;;;5.30;82.17;90029.22;2051376;70;20162;-74
2023/11/05 02:07:22;;;;;;;1.30;1.20;;;;;;;5.59;81.45;90009.38;2050793;69;20161;-74
2023/11/05 02:09:48;;;;;;;1.90;1.02;;;;;;;5.29;82.13;90016.66;2051051;70;20143;-75
2023/11/05 02:12:17;;;;;;;1.10;1.00;;;;;;;5.35;81.68;90014.06;2051346;70;20152;-74
2023/11/05 02:14:54;;;;;;;1.35;0.93;;;;;;;5.16;80.83;90012.69;2051623;70;20436;-75
2023/11/05 02:17:24;;;;;;;1.17;0.80;;;;;;;5.04;82.28;90026.91;2051739;69;20324;-74
2023/11/05 02:19:51;;;;;;;1.67;1.10;;;;;;;5.50;80.96;90027.19;2051203;70;20636;-74
2023/11/05 02:22:18;;;;;;;2.10;1.10;;;;;;;5.35;82.11;90020.38;2050598;70;20150;-75
2023/11/05 02:24:45;;;;;;;2.17;1.55;;;;;;;5.03;84.47;90017.09;2050628;69;20249;-75
2023/11/05 02:27:11;;;;;;;2.35;1.55;;;;;;;5.42;83.53;90042.91;2051503;70;20142;-76
2023/11/05 02:29:38;;;;;;;1.45;1.20;;;;;;;5.47;82.64;90045.22;2048077;70;20220;-75
2023/11/05 02:32:04;;;;;;;5.05;1.48;;;;;;;5.74;81.87;90044.09;2048251;70;20194;-75
2023/11/05 02:34:31;;;;;;;3.03;1.52;;;;;;;5.78;81.60;90035.16;2050726;70;20225;-76
2023/11/05 02:36:58;;;;;;;2.55;1.40;;;;;;;5.71;81.55;90034.19;2051022;69;20245;-75
2023/11/05 02:39:25;;;;;;;2.33;1.50;;;;;;;5.71;81.26;90037.00;2050561;70;20130;-77
2023/11/05 02:41:52;;;;;;;5.47;1.70;;;;;;;5.75;81.97;90033.63;2051063;69;20158;-78
2023/11/05 02:44:18;;;;;;;1.90;1.40;;;;;;;5.56;82.62;90027.41;2051053;70;20149;-75
2023/11/05 02:46:44;;;;;;;3.13;1.48;;;;;;;5.80;81.80;90027.53;2051038;69;20158;-76
2023/11/05 02:49:12;;;;;;;1.73;1.30;;;;;;;5.98;81.45;90027.47;2051035;69;20672;-76
2023/11/05 02:51:37;;;;;;;1.80;1.35;;;;;;;6.10;80.86;90047.47;2050505;70;20221;-76
2023/11/05 02:54:03;;;;;;;2.17;1.30;;;;;;;6.05;81.51;90039.59;2050579;70;20162;-76
2023/11/05 02:56:29;;;;;;;1.85;1.30;;;;;;;6.16;81.37;90023.88;2050880;69;20164;-77
2023/11/05 02:58:54;;;;;;;2.40;1.40;;;;;;;5.80;82.10;90027.53;2050559;69;20133;-77
2023/11/05 03:01:22;;;;;;;1.58;1.30;;;;;;;6.08;81.20;90032.69;2050494;70;20139;-76
2023/11/05 03:03:47;;;;;;;3.88;1.30;;;;;;;6.18;80.55;90029.53;2050899;69;20245;-75
2023/11/05 03:06:14;;;;;;;2.13;1.50;;;;;;;6.16;80.40;90023.88;2051139;70;20141;-76
2023/11/05 03:08:40;;;;;;;1.42;1.30;;;;;;;6.26;80.05;90022.13;2050461;70;20881;-76
2023/11/05 03:11:07;;;;;;;2.10;1.38;;;;;;;6.29;80.13;90031.31;2050847;70;20142;-76
2023/11/05 03:13:33;;;;;;;2.90;1.30;;;;;;;6.27;80.46;90023.56;2050795;69;20151;-77
2023/11/05 03:15:59;;;;;;;3.00;1.40;;;;;;;6.24;80.15;90013.00;2050444;70;20162;-78
2023/11/05 03:18:26;;;;;;;1.75;1.50;;;;;;;6.20;79.97;90010.06;2050361;70;20150;-77
2023/11/05 03:20:52;;;;;;;1.38;1.27;;;;;;;6.17;80.55;89991.78;2051036;69;20182;-76
2023/11/05 03:23:18;;;;;;;1.83;1.50;;;;;;;6.10;80.59;89988.09;2051052;69;20169;-77
2023/11/05 03:25:44;;;;;;;3.28;1.25;;;;;;;6.10;79.85;89972.06;2050995;69;20503;-76
2023/11/05 03:28:10;;;;;;;2.00;1.50;;;;;;;6.06;80.46;89980.28;2051230;70;20692;-77
2023/11/05 03:30:35;;;;;;;2.17;1.48;;;;;;;6.15;80.38;89984.06;2050577;70;20249;-76
2023/11/05 03:33:04;;;;;;;1.52;1.20;;;;;;;6.17;80.39;89975.75;2050211;70;20162;-76
2023/11/05 03:35:30;;;;;;;3.83;1.30;;;;;;;6.20;80.58;89984.91;2051149;69;20177;-78
2023/11/05 03:37:56;;;;;;;2.00;1.50;;;;;;;6.16;80.77;89971.53;2050890;69;20131;-76
2023/11/05 03:40:22;;;;;;;2.47;1.58;;;;;;;6.19;79.46;89975.13;2047565;70;20170;-75
2023/11/05 03:42:47;;;;;;;3.42;1.50;;;;;;;6.17;79.77;89975.75;2051016;69;20241;-77
2023/11/05 03:45:13;;;;;;;1.92;1.65;;;;;;;6.16;79.07;89963.16;2050829;70;20198;-77
2023/11/05 03:47:39;;;;;;;2.05;1.73;;;;;;;6.16;79.34;89963.16;2050878;70;20166;-75
2023/11/05 03:50:05;;;;;;;2.30;1.73;;;;;;;6.16;79.70;89956.84;2051052;69;20149;-77
2023/11/05 03:52:31;;;;;;;2.20;1.92;;;;;;;6.11;79.32;89958.81;2051058;70;20155;-77
2023/11/05 03:54:57;;;;;;;2.05;1.50;;;;;;;5.99;79.52;89959.09;2050924;69;20153;-77
2023/11/05 03:57:22;;;;;;;3.35;1.92;;;;;;;6.11;79.99;89956.72;2053070;69;20189;-75
2023/11/05 03:59:48;;;;;;;3.65;1.63;;;;;;;6.16;79.82;89951.25;2050844;70;20193;-76
2023/11/05 04:02:14;;;;;;;2.20;1.73;;;;;;;5.98;79.73;89943.72;2050818;70;20193;-77
2023/11/05 04:04:40;;;;;;;2.05;1.55;;;;;;;5.97;80.32;89936.72;2050258;70;20632;-75
2023/11/05 04:07:07;;;;;;;3.97;2.05;;;;;;;6.05;79.71;89931.41;2051071;70;20154;-76
2023/11/05 04:09:33;;;;;;;2.28;1.77;;;;;;;5.93;79.63;89916.31;2051049;70;20153;-76
2023/11/05 04:11:59;;;;;;;1.85;1.45;;;;;;;6.03;79.91;89925.72;2051108;70;20548;-75
2023/11/05 04:14:26;;;;;;;1.80;1.50;;;;;;;6.07;79.79;89931.44;2051003;70;20151;-75
2023/11/05 04:16:54;;;;;;;2.15;1.48;;;;;;;5.97;79.85;89927.63;2050973;70;20151;-76
2023/11/05 04:19:19;;;;;;;2.83;1.60;;;;;;;5.73;80.10;89919.13;2051048;69;20283;-75
2023/11/05 04:21:45;;;;;;;2.30;1.80;;;;;;;5.51;82.17;89924.66;2050974;69;20172;-76
2023/11/05 04:24:11;;;;;;;3.17;1.90;;;;;;;5.57;82.82;89925.59;2050689;70;20153;-74
2023/11/05 04:26:37;;;;;;;4.82;1.90;;;;;;;5.44;82.51;89929.31;2051316;70;20149;-76
2023/11/05 04:29:02;;;;;;;2.35;1.85;;;;;;;5.35;83.54;89930.38;2050750;70;20142;-75
2023/11/05 04:31:28;;;;;;;2.72;2.08;;;;;;;5.49;82.46;89922.50;2051322;69;20348;-76
2023/11/05 04:33:53;;;;;;;3.17;1.90;;;;;;;5.72;82.12;89940.00;2051485;69;20165;-76
2023/11/05 04:36:19;;;;;;;2.90;1.85;;;;;;;5.74;81.57;89934.50;2051962;69;20559;-75
2023/11/05 04:38:45;;;;;;;2.47;1.70;;;;;;;5.57;81.44;89911.63;2051092;69;20253;-75
2023/11/05 04:41:11;;;;;;;3.25;1.80;;;;;;;5.58;81.23;89912.34;2051018;70;20228;-77
2023/11/05 04:43:37;;;;;;;3.92;1.92;;;;;;;5.60;81.14;89904.06;2051496;70;20138;-76
2023/11/05 04:46:02;;;;;;;2.22;1.60;;;;;;;5.56;81.21;89899.03;2052158;70;20239;-76
2023/11/05 04:48:28;;;;;;;1.92;1.70;;;;;;;5.48;80.94;89906.41;2051926;69;20142;-79
2023/11/05 04:50:54;;;;;;;2.38;1.75;;;;;;;5.45;80.86;89902.88;2051982;69;20178;-78
2023/11/05 04:53:20;;;;;;;2.28;1.60;;;;;;;5.42;81.47;89904.16;2051930;70;20548;-75
2023/11/05 04:55:46;;;;;;;1.77;1.60;;;;;;;5.45;81.61;89911.25;2051780;69;20153;-78
2023/11/05 04:58:12;;;;;;;1.55;1.42;;;;;;;5.57;81.41;89908.13;2051852;69;20137;-76
2023/11/05 05:00:38;;;;;;;2.00;1.60;;;;;;;5.66;81.44;89915.41;2051865;69;20155;-75
2023/11/05 05:03:04;;;;;;;1.70;1.58;;;;;;;5.55;81.42;89914.38;2052004;70;20503;-77
2023/11/05 05:05:30;;;;;;;3.42;1.88;;;;;;;4.87;83.29;89912.66;2052125;69;20209;-76
2023/11/05 05:07:56;;;;;;;2.75;1.98;;;;;;;5.15;83.04;89896.94;2051914;69;20578;-78
2023/11/05 05:10:22;;;;;;;2.60;2.00;;;;;;;5.28;82.06;89898.78;2051308;70;20530;-76
2023/11/05 05:12:47;;;;;;;4.22;2.08;;;;;;;5.42;82.00;89898.56;2052037;69;20141;-78
2023/11/05 05:15:13;;;;;;;2.53;2.00;;;;;;;5.47;81.38;89891.06;2051788;69;20586;-77
2023/11/05 05:17:38;;;;;;;2.35;2.05;;;;;;;5.45;81.46;89880.53;2051910;69;20174;-77
2023/11/05 05:20:08;;;;;;;3.63;2.90;;;;;;;5.54;80.89;89884.31;2052136;69;20221;-76
2023/11/05 05:22:33;;;;;;;9.65;5.15;;;;;;;5.43;81.37;89880.47;2051971;70;20134;-76
2023/11/05 05:24:59;;;;;;;13.02;6.60;;;;;;;5.39;82.13;89894.28;2051882;69;20162;-78
2023/11/05 05:27:25;;;;;;;7.15;3.28;;;;;;;5.47;81.93;89899.41;2051865;70;20608;-76
2023/11/05 05:29:51;;;;;;;8.02;5.30;;;;;;;5.49;82.04;89891.81;2051890;69;20132;-78
2023/11/05 05:32:17;;;;;;;7.95;3.13;;;;;;;5.31;81.39;89866.84;2051359;70;20130;-78
2023/11/05 05:34:42;;;;;;;3.45;2.80;;;;;;;5.45;81.71;89899.34;2051792;69;20150;-79
2023/11/05 05:37:08;;;;;;;2.85;1.75;;;;;;;5.48;81.53;89904.34;2051760;70;20182;-78
2023/11/05 05:39:33;;;;;;;1.48;1.35;;;;;;;5.58;81.13;89898.38;2051737;69;20175;-77
2023/11/05 05:42:03;;;;;;;1.40;1.10;;;;;;;5.60;81.14;89901.97;2051922;69;20506;-78
2023/11/05 05:44:28;;;;;;;2.20;1.05;;;;;;;5.58;80.96;89890.03;2051925;69;20208;-78
2023/11/05 05:46:54;;;;;;;4.88;1.20;;;;;;;5.55;80.75;89892.03;2052001;69;20182;-78
2023/11/05 05:49:19;;;;;;;1.67;1.30;;;;;;;5.48;81.30;89887.59;2051907;70;20157;-79
2023/11/05 05:51:45;;;;;;;1.15;1.00;;;;;;;5.46;80.68;89887.56;2051690;69;20175;-75
2023/11/05 05:54:11;;;;;;;1.40;1.00;;;;;;;5.34;80.99;89882.25;2051602;70;20594;-75
2023/11/05 05:56:37;;;;;;;1.20;1.10;;;;;;;5.34;80.76;89882.25;2051226;70;20131;-77
2023/11/05 05:59:02;;;;;;;1.73;1.40;;;;;;;5.27;81.04;89874.34;2051712;69;20156;-77
2023/11/05 06:01:28;;;;;;;1.95;1.48;;;;;;;5.21;81.02;89866.47;2051785;69;20509;-77
2023/11/05 06:03:53;;;;;;;1.10;1.00;;;;;;;5.20;81.07;89875.50;2051766;69;20170;-77
2023/11/05 06:06:19;;;;;;;1.38;0.80;;;;;;;5.22;81.16;89878.34;2052002;69;20158;-77
2023/11/05 06:08:45;;;;;;;0.85;0.70;;;;;;;5.29;81.32;89894.63;2051180;70;20222;-77
2023/11/05 06:11:11;;;;;;;1.00;0.65;;;;;;;5.22;81.68;89886.69;2051707;69;20146;-79
2023/11/05 06:13:38;;;;;;;0.77;0.68;;;;;;;5.23;81.76;89902.09;2051841;69;20221;-79
2023/11/05 06:16:04;;;;;;;1.63;1.52;;;;;;;5.00;82.22;89909.66;2051916;69;20143;-79
2023/11/05 06:18:30;;;;;;;2.88;1.88;;;;;;;4.86;82.98;89917.53;2051235;69;20172;-78
2023/11/05 06:20:56;;;;;;;3.53;1.70;;;;;;;5.00;82.30;89908.97;2051245;70;20208;-79
2023/11/05 06:23:21;;;;;;;2.22;1.65;;;;;;;5.11;82.19;89899.59;2051259;70;20509;-76
2023/11/05 06:25:47;;;;;;;4.57;2.10;;;;;;;4.84;83.27;89900.72;2051588;70;20154;-77
2023/11/05 06:28:14;;;;;;;2.72;2.13;;;;;;;4.82;82.66;89886.72;2051847;70;20154;-77
2023/11/05 06:30:40;;;;;;;7.53;4.28;;;;;;;4.64;83.30;89891.63;2051716;69;20172;-79
2023/11/05 06:33:05;;;;;;;5.07;4.53;;;;;;;4.89;83.07;89902.28;2051788;69;20521;-79
2023/11/05 06:35:31;;;;;;;5.78;3.72;;;;;;;4.85;83.12;89907.72;2051725;69;20167;-79
2023/11/05 06:37:57;;;;;;;5.88;3.20;;;;;;;4.88;81.87;89911.28;2051695;69;20147;-78
2023/11/05 06:40:23;;;;;;;2.90;2.50;;;;;;;4.87;81.96;89904.28;2051685;69;20135;-78
2023/11/05 06:42:48;;;;;;;2.63;2.13;;;;;;;4.58;83.00;89884.47;2051728;69;20176;-77
2023/11/05 06:45:14;;;;;;;2.75;2.38;;;;;;;4.90;82.36;89903.00;2051756;70;20244;-78
2023/11/05 06:47:42;;;;;;;2.80;2.45;;;;;;;4.88;82.25;89905.72;2051584;70;20142;-76
2023/11/05 06:50:08;;;;;;;2.95;2.30;;;;;;;4.63;82.44;89927.13;2051616;69;20173;-78
2023/11/05 06:52:34;;;;;;;5.63;2.38;;;;;;;4.39;83.32;89915.75;2051698;69;20174;-78
2023/11/05 06:54:59;;;;;;;5.60;2.60;;;;;;;4.52;83.21;89939.22;2051637;69;20241;-79
2023/11/05 06:57:25;;;;;;;4.68;3.00;;;;;;;4.66;82.34;89944.63;2051837;69;20154;-77
2023/11/05 06:59:51;;;;;;;3.50;2.72;;;;;;;4.76;82.25;89931.78;2051818;69;20145;-78
2023/11/05 07:02:16;;;;;;;3.92;2.63;;;;;;;4.80;82.03;89917.28;2051751;69;20142;-78
2023/11/05 07:04:42;;;;;;;3.15;2.67;;;;;;;4.80;81.48;89918.00;2051786;69;20142;-78
2023/11/05 07:07:07;;;;;;;3.05;2.30;;;;;;;4.81;81.84;89925.03;2051864;69;20139;-76
2023/11/05 07:09:34;;;;;;;3.47;2.58;;;;;;;4.74;81.68;89914.28;2051536;69;20154;-78
2023/11/05 07:11:59;;;;;;;3.90;2.63;;;;;;;4.79;81.97;89919.34;2051664;69;20158;-77
2023/11/05 07:14:25;;;;;;;3.08;2.50;;;;;;;4.78;81.74;89934.66;2051587;69;20142;-79
2023/11/05 07:16:50;;;;;;;3.22;2.22;;;;;;;4.73;82.18;89940.72;2051037;70;20237;-79
2023/11/05 07:19:16;;;;;;;5.63;4.35;;;;;;;4.43;83.19;89960.50;2052126;70;20138;-78
2023/11/05 07:21:45;;;;;;;5.28;3.70;;;;;;;4.74;82.76;89967.22;2052036;69;20514;-79
2023/11/05 07:24:11;;;;;;;5.72;3.08;;;;;;;4.96;82.32;89976.44;2051845;70;20151;-77
2023/11/05 07:26:36;;;;;;;9.73;3.70;;;;;;;4.85;82.45;89966.94;2051846;69;20142;-78
2023/11/05 07:29:03;;;;;;;5.85;4.05;;;;;;;4.86;83.07;89945.41;2051646;70;20233;-78
2023/11/05 07:31:29;;;;;;;9.68;5.53;;;;;;;5.00;82.43;89959.84;2051182;70;20538;-77
2023/11/05 07:33:54;;;;;;;10.85;7.25;;;;;;;4.98;82.20;89950.69;2051708;70;20248;-78
2023/11/05 07:36:20;;;;;;;9.85;6.80;;;;;;;5.06;82.00;89937.75;2051702;70;20154;-79
2023/11/05 07:38:45;;;;;;;9.07;6.15;;;;;;;5.11;81.93;89952.56;2051195;70;20129;-79
2023/11/05 07:41:11;;;;;;;10.57;6.68;;;;;;;5.03;82.09;89950.19;2050939;70;20197;-78
2023/11/05 07:43:39;;;;;;;15.65;9.20;;;;;;;4.96;81.89;89939.47;2051747;69;20226;-77
2023/11/05 07:46:06;;;;;;;16.60;11.00;;;;;;;5.16;81.67;89968.06;2051594;70;20595;-79
2023/11/05 07:48:32;;;;;;;16.83;10.52;;;;;;;5.17;81.89;89969.50;2051688;69;20212;-81
2023/11/05 07:50:58;;;;;;;5.53;3.78;;;;;;;5.20;81.83;89975.88;2051665;70;20142;-77
2023/11/05 07:53:23;;;;;;;4.80;3.35;;;;;;;5.27;81.89;89992.19;2051612;70;20598;-79
2023/11/05 07:55:49;;;;;;;7.22;4.95;;;;;;;5.09;81.98;89972.00;2051016;70;20150;-79
2023/11/05 07:58:14;;;;;;;8.32;4.90;;;;;;;5.01;81.77;89971.72;2051598;70;20135;-80
2023/11/05 08:00:41;;;;;;;9.93;5.50;;;;;;;5.12;81.67;89972.78;2052146;70;20138;-77
2023/11/05 08:03:07;;;;;;;10.30;5.82;;;;;;;5.14;81.79;89965.22;2052770;69;20134;-76
2023/11/05 08:05:34;;;;;;;9.18;6.20;;;;;;;5.23;81.66;89972.53;2052531;69;20154;-76
2023/11/05 08:08:00;;;;;;;10.93;6.60;;;;;;;5.67;81.78;89969.16;2052184;69;20224;-79
2023/11/05 08:10:25;;;;;;;9.75;6.38;;;;;;;5.94;85.25;89979.16;2051985;69;20142;-76
2023/11/05 08:12:51;;;;;;;15.10;9.75;;;;;;;5.80;84.47;89991.25;2052128;69;20150;-79
2023/11/05 08:15:16;;;;;;;15.80;9.05;;;;;;;6.43;82.75;89992.66;2052131;69;20147;-77
2023/11/05 08:17:42;;;;;;;10.13;5.35;;;;;;;6.38;81.94;89991.09;2052022;70;20610;-77
2023/11/05 08:20:11;;;;;;;7.50;4.38;;;;;;;6.76;80.30;89991.59;2052159;69;20138;-79
2023/11/05 08:22:41;;;;;;;4.95;3.30;;;;;;;7.11;80.15;90001.03;2052027;69;20172;-79
2023/11/05 08:25:12;;;;;;;5.95;3.70;;;;;;;7.33;80.40;89979.31;2052078;69;20153;-76
2023/11/05 08:27:41;;;;;;;5.53;3.20;;;;;;;7.58;78.92;89980.00;2052066;69;20146;-77
2023/11/05 08:30:11;;;;;;;3.75;2.65;;;;;;;7.72;80.36;89979.66;2052258;69;20610;-81
2023/11/05 08:32:38;;;;;;;17.13;9.05;;;;;;;7.97;80.85;89981.03;2052101;69;20158;-82
2023/11/05 08:35:05;;;;;;;14.60;6.10;;;;;;;8.20;77.33;89985.84;2052046;69;20230;-81
2023/11/05 08:37:34;;;;;;;11.77;5.90;;;;;;;7.75;77.63;89983.97;2052037;69;20570;-79
2023/11/05 08:39:59;;;;;;;7.88;4.68;;;;;;;8.70;78.48;90001.81;2051336;70;20173;-77
2023/11/05 08:42:25;;;;;;;15.77;7.90;;;;;;;8.71;76.12;89997.66;2051914;69;20196;-78
2023/11/05 08:44:51;;;;;;;16.35;8.85;;;;;;;9.53;73.85;89995.28;2052088;69;20135;-77
2023/11/05 08:47:16;;;;;;;7.50;5.13;;;;;;;9.15;71.18;89995.84;2051978;69;20142;-81
2023/11/05 08:49:42;;;;;;;6.47;3.78;;;;;;;9.72;72.13;90006.91;2051938;69;20574;-81
2023/11/05 08:52:08;;;;;;;4.85;2.80;;;;;;;9.49;70.20;90023.28;2051986;69;20248;-82
2023/11/05 08:54:34;;;;;;;3.95;2.65;;;;;;;9.63;70.71;90020.78;2051782;70;20141;-80
2023/11/05 08:57:00;;;;;;;2.95;2.30;;;;;;;9.85;69.47;90031.03;2052297;69;20633;-80
2023/11/05 08:59:26;;;;;;;2.83;1.92;;;;;;;9.92;69.47;90029.78;2052250;69;20158;-80
2023/11/05 09:01:52;;;;;;;3.22;2.55;;;;;;;10.14;68.66;90009.84;2051960;69;20158;-81
2023/11/05 09:04:18;;;;;;;2.40;2.15;;;;;;;10.71;67.29;90032.69;2052496;69;20257;-77
2023/11/05 09:06:45;;;;;;;3.33;2.65;;;;;;;10.82;67.12;90023.75;2054258;70;20142;-80
2023/11/05 09:09:15;;;;;;;3.65;2.30;;;;;;;10.84;66.16;90026.59;2053101;70;20158;-78
2023/11/05 09:11:42;;;;;;;3.88;2.38;;;;;;;9.59;68.10;90037.53;2051919;69;20174;-81
2023/11/05 09:14:07;;;;;;;3.17;2.05;;;;;;;10.45;67.25;90049.81;2051553;70;20248;-77
2023/11/05 09:16:33;;;;;;;2.65;2.08;;;;;;;10.07;67.64;90053.25;2052060;69;20200;-76
2023/11/05 09:18:59;;;;;;;3.50;2.00;;;;;;;10.32;67.68;90023.56;2052022;69;20190;-77
2023/11/05 09:21:25;;;;;;;2.92;2.10;;;;;;;10.62;66.02;90068.41;2051873;70;20185;-83
2023/11/05 09:23:51;;;;;;;3.28;1.90;;;;;;;10.90;65.74;90059.75;2051673;69;20147;-78
2023/11/05 09:26:18;;;;;;;2.80;1.80;;;;;;;11.14;65.20;90074.25;2051807;69;20158;-79
2023/11/05 09:28:44;;;;;;;2.22;1.77;;;;;;;11.24;64.26;90084.97;2051982;69;20169;-80
2023/11/05 09:31:11;;;;;;;3.72;2.83;;;;;;;10.96;65.50;90096.44;2051935;69;20582;-80
2023/11/05 09:33:37;;;;;;;2.85;2.17;;;;;;;11.03;65.05;90091.63;2051940;70;20522;-80
2023/11/05 09:36:03;;;;;;;2.78;2.30;;;;;;;10.83;64.97;90101.16;2052325;69;20224;-79
2023/11/05 09:38:29;;;;;;;4.28;2.88;;;;;;;11.08;65.56;90105.09;2052638;69;20157;-79
2023/11/05 09:40:54;;;;;;;3.78;2.88;;;;;;;11.18;64.80;90110.22;2052448;69;20518;-77
2023/11/05 09:43:21;;;;;;;4.88;3.25;;;;;;;11.25;64.12;90116.66;2052664;69;20154;-80
2023/11/05 09:45:50;;;;;;;4.88;2.80;;;;;;;10.73;65.07;90120.66;2052421;70;20534;-80
2023/11/05 09:48:16;;;;;;;10.40;3.60;;;;;;;10.56;65.21;90128.06;2051840;69;20153;-77
2023/11/05 09:50:43;;;;;;;5.25;2.45;;;;;;;10.86;65.22;90138.50;2051804;70;20178;-76
2023/11/05 09:53:14;;;;;;;6.05;3.30;;;;;;;10.88;64.98;90138.50;2051940;69;20138;-77
2023/11/05 09:55:41;;;;;;;5.20;3.20;;;;;;;10.15;66.85;90149.69;2051812;69;20177;-79
2023/11/05 09:58:08;;;;;;;4.43;3.00;;;;;;;10.39;65.89;90148.81;2051807;69;20511;-80
2023/11/05 10:00:36;;;;;;;2.67;2.20;;;;;;;10.39;66.23;90154.44;2051739;70;20157;-78
2023/11/05 10:03:05;;;;;;;2.13;1.70;;;;;;;10.61;65.48;90171.75;2051703;70;20147;-78
2023/11/05 10:05:33;;;;;;;3.67;1.98;;;;;;;10.51;66.10;90196.16;2051852;69;20217;-79
2023/11/05 10:07:59;;;;;;;2.78;2.30;;;;;;;10.54;66.21;90203.97;2051834;69;20200;-80
2023/11/05 10:10:26;;;;;;;5.40;2.58;;;;;;;10.63;66.65;90214.03;2051158;70;20161;-79
2023/11/05 10:12:53;;;;;;;2.50;1.88;;;;;;;10.47;67.67;90210.13;2051822;69;20134;-78
2023/11/05 10:15:20;;;;;;;4.70;2.00;;;;;;;10.82;66.93;90215.09;2051676;69;20208;-77
2023/11/05 10:17:46;;;;;;;4.47;1.80;;;;;;;10.41;66.33;90219.88;2051824;70;20685;-78
2023/11/05 10:20:12;;;;;;;5.53;4.15;;;;;;;10.93;66.41;90216.00;2052475;69;20146;-76
2023/11/05 10:22:43;;;;;;;7.43;4.90;;;;;;;12.27;65.20;90214.78;2051792;69;20138;-81
2023/11/05 10:25:25;;;;;;;4.35;3.38;;;;;;;13.18;62.51;90215.28;2051567;69;20145;-77
2023/11/05 10:27:54;;;;;;;3.13;2.17;;;;;;;14.47;59.62;90228.50;2051746;70;20538;-78
2023/11/05 10:30:21;;;;;;;2.25;1.88;;;;;;;16.07;54.62;90220.72;2051260;70;20162;-77
2023/11/05 10:32:51;;;;;;;4.25;3.17;;;;;;;16.02;54.82;90211.47;2051821;70;20596;-77
2023/11/05 10:35:18;;;;;;;2.63;1.70;;;;;;;14.18;54.82;90207.78;2052096;70;20178;-77
2023/11/05 10:37:51;;;;;;;3.63;2.40;;;;;;;13.75;55.16;90206.03;2051910;70;20214;-78
2023/11/05 10:40:17;;;;;;;5.25;2.70;;;;;;;13.94;56.23;90173.66;2051846;70;20180;-79
2023/11/05 10:42:45;;;;;;;4.25;2.85;;;;;;;14.83;55.93;90178.50;2051737;70;20166;-78
2023/11/05 10:45:12;;;;;;;3.08;2.03;;;;;;;14.91;54.73;90189.88;2051828;69;20123;-78
2023/11/05 10:47:38;;;;;;;2.72;1.98;;;;;;;14.19;55.19;90192.22;2051771;69;20151;-78
2023/11/05 10:50:08;;;;;;;3.30;2.10;;;;;;;13.77;56.91;90192.59;2051659;70;20142;-78
2023/11/05 10:52:37;;;;;;;4.05;1.80;;;;;;;13.54;56.84;90205.81;2051860;69;20242;-78
2023/11/05 10:55:06;;;;;;;1.20;1.10;;;;;;;13.54;57.53;90242.53;2051653;70;20229;-78
2023/11/05 10:57:47;;;;;;;3.00;1.58;;;;;;;13.35;58.77;90257.88;2051734;69;20170;-81
2023/11/05 11:00:27;;;;;;;5.13;1.50;;;;;;;14.41;59.16;90268.09;2051709;69;20153;-80
2023/11/05 11:02:59;;;;;;;2.40;1.70;;;;;;;14.46;59.54;90257.53;2051809;70;20142;-77
2023/11/05 11:05:39;;;;;;;2.47;1.55;;;;;;;15.52;57.44;90264.50;2051715;69;20139;-78
2023/11/05 11:08:06;;;;;;;2.33;1.90;;;;;;;17.03;54.90;90255.47;2051579;69;20372;-77
2023/11/05 11:10:40;;;;;;;10.02;6.57;;;;;;;15.61;52.33;90253.19;2051570;70;20147;-77
2023/11/05 11:13:10;;;;;;;6.32;3.78;;;;;;;14.65;55.39;90252.72;2051068;70;20682;-78
2023/11/05 11:15:37;;;;;;;3.78;3.10;;;;;;;13.42;58.45;90267.84;2051568;70;20145;-79
2023/11/05 11:18:03;;;;;;;1.98;1.70;;;;;;;15.91;55.58;90270.34;2051639;70;20147;-79
2023/11/05 11:20:32;;;;;;;10.60;8.00;;;;;;;17.92;51.51;90251.66;2051696;69;20150;-80
2023/11/05 11:23:05;;;;;;;2.42;2.03;;;;;;;18.41;46.93;90254.19;2051736;69;20150;-79
2023/11/05 11:25:33;;;;;;;2.17;1.40;;;;;;;21.72;44.40;90273.63;2051014;70;20587;-79
2023/11/05 11:28:00;;;;;;;2.22;1.67;;;;;;;25.18;39.75;90263.56;2051456;70;20533;-79
2023/11/05 11:30:26;;;;;;;2.10;1.60;;;;;;;21.70;40.48;90250.03;2052062;70;20326;-79
2023/11/05 11:32:53;;;;;;;2.65;1.90;;;;;;;25.05;37.16;90266.09;2051976;70;20518;-78
2023/11/05 11:35:20;;;;;;;1.52;1.00;;;;;;;21.48;41.00;90268.34;2051358;69;20142;-81